sensor_id;sensor_type;location;lat;lon;timestamp;temperature;humidity
4908;DHT22;64375;51.540;7.364;2023-04-03T00:02:03;7.90;91.60
4908;DHT22;64375;51.540;7.364;2023-04-03T00:04:31;7.60;91.90
4908;DHT22;64375;51.540;7.364;2023-04-03T00:06:59;7.40;92.40
4908;DHT22;64375;51.540;7.364;2023-04-03T00:09:34;7.20;92.60
4908;DHT22;64375;51.540;7.364;2023-04-03T00:12:02;7.70;96.70
4908;DHT22;64375;51.540;7.364;2023-04-03T00:14:30;7.80;93.70
4908;DHT22;64375;51.540;7.364;2023-04-03T00:16:58;7.60;92.50
4908;DHT22;64375;51.540;7.364;2023-04-03T00:19:32;7.40;92.60
4908;DHT22;64375;51.540;7.364;2023-04-03T00:22:03;7.30;93.10
4908;DHT22;64375;51.540;7.364;2023-04-03T00:24:32;7.20;93.00
4908;DHT22;64375;51.540;7.364;2023-04-03T00:27:00;7.60;96.50
4908;DHT22;64375;51.540;7.364;2023-04-03T00:29:35;8.10;99.40
4908;DHT22;64375;51.540;7.364;2023-04-03T00:32:05;8.20;95.70
4908;DHT22;64375;51.540;7.364;2023-04-03T00:34:33;8.00;93.40
4908;DHT22;64375;51.540;7.364;2023-04-03T00:37:01;7.90;93.00
4908;DHT22;64375;51.540;7.364;2023-04-03T00:39:33;7.60;92.40
4908;DHT22;64375;51.540;7.364;2023-04-03T00:42:04;7.50;93.60
4908;DHT22;64375;51.540;7.364;2023-04-03T00:47:44;7.60;93.10
4908;DHT22;64375;51.540;7.364;2023-04-03T00:50:12;7.50;92.90
4908;DHT22;64375;51.540;7.364;2023-04-03T00:52:46;7.40;92.90
4908;DHT22;64375;51.540;7.364;2023-04-03T00:55:20;7.20;92.60
4908;DHT22;64375;51.540;7.364;2023-04-03T00:57:48;7.40;95.30
4908;DHT22;64375;51.540;7.364;2023-04-03T01:00:19;7.70;96.70
4908;DHT22;64375;51.540;7.364;2023-04-03T01:02:49;7.70;94.50
4908;DHT22;64375;51.540;7.364;2023-04-03T01:05:18;7.60;93.00
4908;DHT22;64375;51.540;7.364;2023-04-03T01:07:47;7.40;93.10
4908;DHT22;64375;51.540;7.364;2023-04-03T01:10:22;7.30;93.00
4908;DHT22;64375;51.540;7.364;2023-04-03T01:12:59;7.60;96.00
4908;DHT22;64375;51.540;7.364;2023-04-03T01:15:36;7.90;96.40
4908;DHT22;64375;51.540;7.364;2023-04-03T01:18:10;7.50;92.60
4908;DHT22;64375;51.540;7.364;2023-04-03T01:21:20;7.20;92.20
4908;DHT22;64375;51.540;7.364;2023-04-03T01:24:03;6.80;92.30
4908;DHT22;64375;51.540;7.364;2023-04-03T01:26:40;6.80;94.10
4908;DHT22;64375;51.540;7.364;2023-04-03T01:29:11;7.10;96.10
4908;DHT22;64375;51.540;7.364;2023-04-03T01:31:51;7.10;93.60
4908;DHT22;64375;51.540;7.364;2023-04-03T01:34:20;6.90;93.20
4908;DHT22;64375;51.540;7.364;2023-04-03T01:37:05;6.80;92.50
4908;DHT22;64375;51.540;7.364;2023-04-03T01:39:35;6.60;92.70
4908;DHT22;64375;51.540;7.364;2023-04-03T01:42:03;6.70;94.00
4908;DHT22;64375;51.540;7.364;2023-04-03T01:44:35;6.70;93.20
4908;DHT22;64375;51.540;7.364;2023-04-03T01:47:05;6.60;92.60
4908;DHT22;64375;51.540;7.364;2023-04-03T01:49:36;6.30;92.40
4908;DHT22;64375;51.540;7.364;2023-04-03T01:52:04;6.20;92.70
4908;DHT22;64375;51.540;7.364;2023-04-03T01:54:49;6.10;93.00
4908;DHT22;64375;51.540;7.364;2023-04-03T01:57:17;6.20;94.20
4908;DHT22;64375;51.540;7.364;2023-04-03T01:59:45;6.30;93.50
4908;DHT22;64375;51.540;7.364;2023-04-03T02:02:24;6.20;93.10
4908;DHT22;64375;51.540;7.364;2023-04-03T02:04:52;6.10;92.90
4908;DHT22;64375;51.540;7.364;2023-04-03T02:07:21;6.00;93.50
4908;DHT22;64375;51.540;7.364;2023-04-03T02:09:55;6.10;94.90
4908;DHT22;64375;51.540;7.364;2023-04-03T02:12:23;6.40;97.20
4908;DHT22;64375;51.540;7.364;2023-04-03T02:14:53;6.60;94.70
4908;DHT22;64375;51.540;7.364;2023-04-03T02:17:23;6.50;93.30
4908;DHT22;64375;51.540;7.364;2023-04-03T02:19:59;6.20;92.50
4908;DHT22;64375;51.540;7.364;2023-04-03T02:22:31;6.00;92.60
4908;DHT22;64375;51.540;7.364;2023-04-03T02:25:02;5.80;93.20
4908;DHT22;64375;51.540;7.364;2023-04-03T02:27:30;5.80;93.80
4908;DHT22;64375;51.540;7.364;2023-04-03T02:29:58;5.80;93.50
4908;DHT22;64375;51.540;7.364;2023-04-03T02:32:27;5.70;93.10
4908;DHT22;64375;51.540;7.364;2023-04-03T02:34:57;5.70;93.60
4908;DHT22;64375;51.540;7.364;2023-04-03T02:37:32;5.50;93.30
4908;DHT22;64375;51.540;7.364;2023-04-03T02:39:59;5.60;94.40
4908;DHT22;64375;51.540;7.364;2023-04-03T02:42:28;5.60;93.60
4908;DHT22;64375;51.540;7.364;2023-04-03T02:45:06;5.60;93.10
4908;DHT22;64375;51.540;7.364;2023-04-03T02:47:35;5.30;93.40
4908;DHT22;64375;51.540;7.364;2023-04-03T02:50:04;5.20;94.00
4908;DHT22;64375;51.540;7.364;2023-04-03T02:52:39;5.10;94.30
4908;DHT22;64375;51.540;7.364;2023-04-03T02:55:17;5.40;95.80
4908;DHT22;64375;51.540;7.364;2023-04-03T02:57:48;5.50;94.30
4908;DHT22;64375;51.540;7.364;2023-04-03T03:00:16;5.60;93.80
4908;DHT22;64375;51.540;7.364;2023-04-03T03:02:45;5.50;93.30
4908;DHT22;64375;51.540;7.364;2023-04-03T03:05:16;5.30;93.10
4908;DHT22;64375;51.540;7.364;2023-04-03T03:07:44;5.20;94.70
4908;DHT22;64375;51.540;7.364;2023-04-03T03:10:12;5.50;94.90
4908;DHT22;64375;51.540;7.364;2023-04-03T03:12:46;5.20;93.70
4908;DHT22;64375;51.540;7.364;2023-04-03T03:15:14;5.00;93.50
4908;DHT22;64375;51.540;7.364;2023-04-03T03:17:45;5.00;95.10
4908;DHT22;64375;51.540;7.364;2023-04-03T03:20:16;5.30;96.90
4908;DHT22;64375;51.540;7.364;2023-04-03T03:22:44;5.70;97.20
4908;DHT22;64375;51.540;7.364;2023-04-03T03:25:14;5.60;93.50
4908;DHT22;64375;51.540;7.364;2023-04-03T03:27:42;5.50;94.50
4908;DHT22;64375;51.540;7.364;2023-04-03T03:30:11;5.70;95.40
4908;DHT22;64375;51.540;7.364;2023-04-03T03:32:39;5.70;92.90
4908;DHT22;64375;51.540;7.364;2023-04-03T03:35:08;5.40;92.90
4908;DHT22;64375;51.540;7.364;2023-04-03T03:37:36;5.40;94.10
4908;DHT22;64375;51.540;7.364;2023-04-03T03:40:15;5.80;97.90
4908;DHT22;64375;51.540;7.364;2023-04-03T03:42:52;6.00;95.10
4908;DHT22;64375;51.540;7.364;2023-04-03T03:45:22;5.90;93.10
4908;DHT22;64375;51.540;7.364;2023-04-03T03:47:51;5.80;94.20
4908;DHT22;64375;51.540;7.364;2023-04-03T03:50:39;6.00;94.80
4908;DHT22;64375;51.540;7.364;2023-04-03T03:53:08;5.90;92.60
4908;DHT22;64375;51.540;7.364;2023-04-03T03:55:39;5.50;93.00
4908;DHT22;64375;51.540;7.364;2023-04-03T03:58:16;5.50;93.40
4908;DHT22;64375;51.540;7.364;2023-04-03T04:00:47;5.50;94.10
4908;DHT22;64375;51.540;7.364;2023-04-03T04:03:15;5.60;93.80
4908;DHT22;64375;51.540;7.364;2023-04-03T04:05:44;5.50;92.90
4908;DHT22;64375;51.540;7.364;2023-04-03T04:08:12;5.30;92.60
4908;DHT22;64375;51.540;7.364;2023-04-03T04:10:40;5.20;93.60
4908;DHT22;64375;51.540;7.364;2023-04-03T04:13:14;5.20;94.50
4908;DHT22;64375;51.540;7.364;2023-04-03T04:15:42;5.10;93.30
4908;DHT22;64375;51.540;7.364;2023-04-03T04:18:17;5.10;94.00
4908;DHT22;64375;51.540;7.364;2023-04-03T04:20:53;5.30;95.80
4908;DHT22;64375;51.540;7.364;2023-04-03T04:23:24;5.70;96.30
4908;DHT22;64375;51.540;7.364;2023-04-03T04:25:52;5.70;93.90
4908;DHT22;64375;51.540;7.364;2023-04-03T04:28:37;5.70;93.50
4908;DHT22;64375;51.540;7.364;2023-04-03T04:31:05;5.80;95.30
4908;DHT22;64375;51.540;7.364;2023-04-03T04:33:41;6.00;94.20
4908;DHT22;64375;51.540;7.364;2023-04-03T04:36:10;5.80;92.60
4908;DHT22;64375;51.540;7.364;2023-04-03T04:38:41;5.70;93.10
4908;DHT22;64375;51.540;7.364;2023-04-03T04:41:18;5.70;94.50
4908;DHT22;64375;51.540;7.364;2023-04-03T04:43:53;5.60;92.80
4908;DHT22;64375;51.540;7.364;2023-04-03T04:46:21;5.30;92.60
4908;DHT22;64375;51.540;7.364;2023-04-03T04:48:49;5.00;92.80
4908;DHT22;64375;51.540;7.364;2023-04-03T04:51:19;5.20;94.20
4908;DHT22;64375;51.540;7.364;2023-04-03T04:53:47;5.20;94.60
4908;DHT22;64375;51.540;7.364;2023-04-03T04:56:17;5.20;93.80
4908;DHT22;64375;51.540;7.364;2023-04-03T04:58:45;5.10;94.00
4908;DHT22;64375;51.540;7.364;2023-04-03T05:01:13;5.10;94.10
4908;DHT22;64375;51.540;7.364;2023-04-03T05:03:41;5.00;93.60
4908;DHT22;64375;51.540;7.364;2023-04-03T05:06:09;5.10;94.00
4908;DHT22;64375;51.540;7.364;2023-04-03T05:08:38;4.80;93.60
4908;DHT22;64375;51.540;7.364;2023-04-03T05:11:07;4.70;94.20
4908;DHT22;64375;51.540;7.364;2023-04-03T05:13:34;4.70;94.50
4908;DHT22;64375;51.540;7.364;2023-04-03T05:16:03;4.70;94.30
4908;DHT22;64375;51.540;7.364;2023-04-03T05:18:31;4.70;94.00
4908;DHT22;64375;51.540;7.364;2023-04-03T05:20:59;4.50;93.70
4908;DHT22;64375;51.540;7.364;2023-04-03T05:23:27;4.40;94.10
4908;DHT22;64375;51.540;7.364;2023-04-03T05:25:56;4.20;93.90
4908;DHT22;64375;51.540;7.364;2023-04-03T05:28:24;4.20;94.50
4908;DHT22;64375;51.540;7.364;2023-04-03T05:30:53;4.30;94.80
4908;DHT22;64375;51.540;7.364;2023-04-03T05:33:23;4.30;94.60
4908;DHT22;64375;51.540;7.364;2023-04-03T05:35:52;4.30;95.00
4908;DHT22;64375;51.540;7.364;2023-04-03T05:38:21;4.30;94.40
4908;DHT22;64375;51.540;7.364;2023-04-03T05:40:49;4.20;95.30
4908;DHT22;64375;51.540;7.364;2023-04-03T05:43:18;4.30;96.50
4908;DHT22;64375;51.540;7.364;2023-04-03T05:45:47;4.70;96.20
4908;DHT22;64375;51.540;7.364;2023-04-03T05:48:15;4.80;95.70
4908;DHT22;64375;51.540;7.364;2023-04-03T05:50:43;4.90;93.90
4908;DHT22;64375;51.540;7.364;2023-04-03T05:53:15;5.00;95.50
4908;DHT22;64375;51.540;7.364;2023-04-03T05:55:45;4.80;93.70
4908;DHT22;64375;51.540;7.364;2023-04-03T05:58:13;4.70;93.80
4908;DHT22;64375;51.540;7.364;2023-04-03T06:00:42;4.80;95.60
4908;DHT22;64375;51.540;7.364;2023-04-03T06:03:19;4.80;95.50
4908;DHT22;64375;51.540;7.364;2023-04-03T06:05:48;4.60;93.70
4908;DHT22;64375;51.540;7.364;2023-04-03T06:08:27;4.50;93.90
4908;DHT22;64375;51.540;7.364;2023-04-03T06:10:58;4.20;94.10
4908;DHT22;64375;51.540;7.364;2023-04-03T06:13:28;4.20;95.20
4908;DHT22;64375;51.540;7.364;2023-04-03T06:15:57;4.30;94.60
4908;DHT22;64375;51.540;7.364;2023-04-03T06:18:25;4.20;94.40
4908;DHT22;64375;51.540;7.364;2023-04-03T06:20:53;4.20;94.40
4908;DHT22;64375;51.540;7.364;2023-04-03T06:23:24;4.00;94.50
4908;DHT22;64375;51.540;7.364;2023-04-03T06:25:55;3.90;94.60
4908;DHT22;64375;51.540;7.364;2023-04-03T06:28:23;4.00;95.00
4908;DHT22;64375;51.540;7.364;2023-04-03T06:30:58;4.00;95.20
4908;DHT22;64375;51.540;7.364;2023-04-03T06:33:26;4.00;94.40
4908;DHT22;64375;51.540;7.364;2023-04-03T06:35:57;3.90;94.70
4908;DHT22;64375;51.540;7.364;2023-04-03T06:38:34;3.90;94.60
4908;DHT22;64375;51.540;7.364;2023-04-03T06:41:02;3.90;94.70
4908;DHT22;64375;51.540;7.364;2023-04-03T06:43:47;3.70;94.70
4908;DHT22;64375;51.540;7.364;2023-04-03T06:46:21;3.70;95.00
4908;DHT22;64375;51.540;7.364;2023-04-03T06:48:52;3.80;95.40
4908;DHT22;64375;51.540;7.364;2023-04-03T06:51:25;3.80;94.80
4908;DHT22;64375;51.540;7.364;2023-04-03T06:53:58;3.90;94.60
4908;DHT22;64375;51.540;7.364;2023-04-03T06:56:29;3.90;94.40
4908;DHT22;64375;51.540;7.364;2023-04-03T06:58:57;4.20;96.40
4908;DHT22;64375;51.540;7.364;2023-04-03T07:01:28;4.20;94.00
4908;DHT22;64375;51.540;7.364;2023-04-03T07:03:57;4.20;93.70
4908;DHT22;64375;51.540;7.364;2023-04-03T07:06:31;4.00;93.80
4908;DHT22;64375;51.540;7.364;2023-04-03T07:09:00;4.20;94.30
4908;DHT22;64375;51.540;7.364;2023-04-03T07:11:35;4.40;93.80
4908;DHT22;64375;51.540;7.364;2023-04-03T07:14:10;4.50;93.60
4908;DHT22;64375;51.540;7.364;2023-04-03T07:16:45;4.70;93.80
4908;DHT22;64375;51.540;7.364;2023-04-03T07:19:13;5.10;93.60
4908;DHT22;64375;51.540;7.364;2023-04-03T07:21:47;5.10;93.40
4908;DHT22;64375;51.540;7.364;2023-04-03T07:24:21;5.00;92.90
4908;DHT22;64375;51.540;7.364;2023-04-03T07:26:49;5.10;92.40
4908;DHT22;64375;51.540;7.364;2023-04-03T07:29:18;5.10;92.20
4908;DHT22;64375;51.540;7.364;2023-04-03T07:31:51;5.20;92.20
4908;DHT22;64375;51.540;7.364;2023-04-03T07:34:22;5.30;91.90
4908;DHT22;64375;51.540;7.364;2023-04-03T07:36:50;5.30;92.50
4908;DHT22;64375;51.540;7.364;2023-04-03T07:39:18;5.50;91.90
4908;DHT22;64375;51.540;7.364;2023-04-03T07:41:46;5.50;91.70
4908;DHT22;64375;51.540;7.364;2023-04-03T07:44:20;5.70;91.70
4908;DHT22;64375;51.540;7.364;2023-04-03T07:46:48;5.70;91.30
4908;DHT22;64375;51.540;7.364;2023-04-03T07:49:20;5.80;91.20
4908;DHT22;64375;51.540;7.364;2023-04-03T07:51:52;5.80;91.40
4908;DHT22;64375;51.540;7.364;2023-04-03T07:54:19;5.80;91.30
4908;DHT22;64375;51.540;7.364;2023-04-03T07:56:50;5.90;90.90
4908;DHT22;64375;51.540;7.364;2023-04-03T07:59:24;5.90;91.50
4908;DHT22;64375;51.540;7.364;2023-04-03T08:01:55;5.90;91.00
4908;DHT22;64375;51.540;7.364;2023-04-03T08:04:36;6.00;91.50
4908;DHT22;64375;51.540;7.364;2023-04-03T08:07:04;5.80;90.70
4908;DHT22;64375;51.540;7.364;2023-04-03T08:09:35;5.90;90.90
4908;DHT22;64375;51.540;7.364;2023-04-03T08:12:12;5.70;90.10
4908;DHT22;64375;51.540;7.364;2023-04-03T08:14:41;5.50;91.10
4908;DHT22;64375;51.540;7.364;2023-04-03T08:17:09;5.80;91.10
4908;DHT22;64375;51.540;7.364;2023-04-03T08:19:39;5.80;90.70
4908;DHT22;64375;51.540;7.364;2023-04-03T08:22:13;6.10;91.10
4908;DHT22;64375;51.540;7.364;2023-04-03T08:24:45;6.20;89.50
4908;DHT22;64375;51.540;7.364;2023-04-03T08:27:24;6.10;88.70
4908;DHT22;64375;51.540;7.364;2023-04-03T08:29:53;6.10;88.90
4908;DHT22;64375;51.540;7.364;2023-04-03T08:32:22;6.20;88.80
4908;DHT22;64375;51.540;7.364;2023-04-03T08:34:51;6.10;89.20
4908;DHT22;64375;51.540;7.364;2023-04-03T08:37:22;5.90;89.70
4908;DHT22;64375;51.540;7.364;2023-04-03T08:39:52;5.90;88.00
4908;DHT22;64375;51.540;7.364;2023-04-03T08:42:31;5.80;89.00
4908;DHT22;64375;51.540;7.364;2023-04-03T08:45:12;5.70;87.30
4908;DHT22;64375;51.540;7.364;2023-04-03T08:47:47;5.90;89.20
4908;DHT22;64375;51.540;7.364;2023-04-03T08:50:33;6.00;88.80
4908;DHT22;64375;51.540;7.364;2023-04-03T08:53:04;6.10;87.00
4908;DHT22;64375;51.540;7.364;2023-04-03T08:55:46;6.20;86.30
4908;DHT22;64375;51.540;7.364;2023-04-03T08:58:19;6.20;86.80
4908;DHT22;64375;51.540;7.364;2023-04-03T09:00:53;6.20;86.70
4908;DHT22;64375;51.540;7.364;2023-04-03T09:03:29;6.20;86.50
4908;DHT22;64375;51.540;7.364;2023-04-03T09:06:14;6.30;87.40
4908;DHT22;64375;51.540;7.364;2023-04-03T09:08:50;6.30;83.80
4908;DHT22;64375;51.540;7.364;2023-04-03T09:11:22;6.30;84.50
4908;DHT22;64375;51.540;7.364;2023-04-03T09:13:59;6.10;82.80
4908;DHT22;64375;51.540;7.364;2023-04-03T09:16:39;5.90;80.70
4908;DHT22;64375;51.540;7.364;2023-04-03T09:19:34;5.80;81.50
4908;DHT22;64375;51.540;7.364;2023-04-03T09:22:15;5.90;83.40
4908;DHT22;64375;51.540;7.364;2023-04-03T09:24:52;5.90;82.00
4908;DHT22;64375;51.540;7.364;2023-04-03T09:27:34;5.90;80.50
4908;DHT22;64375;51.540;7.364;2023-04-03T09:30:02;5.90;80.70
4908;DHT22;64375;51.540;7.364;2023-04-03T09:32:32;5.90;82.80
4908;DHT22;64375;51.540;7.364;2023-04-03T09:35:06;6.10;81.00
4908;DHT22;64375;51.540;7.364;2023-04-03T09:38:22;6.00;78.50
4908;DHT22;64375;51.540;7.364;2023-04-03T09:41:06;5.90;80.00
4908;DHT22;64375;51.540;7.364;2023-04-03T09:43:37;5.90;80.20
4908;DHT22;64375;51.540;7.364;2023-04-03T09:46:28;6.10;79.80
4908;DHT22;64375;51.540;7.364;2023-04-03T09:48:58;5.90;79.00
4908;DHT22;64375;51.540;7.364;2023-04-03T09:51:32;5.80;79.10
4908;DHT22;64375;51.540;7.364;2023-04-03T09:54:25;5.90;80.00
4908;DHT22;64375;51.540;7.364;2023-04-03T09:56:54;6.10;82.20
4908;DHT22;64375;51.540;7.364;2023-04-03T09:59:23;6.30;80.10
4908;DHT22;64375;51.540;7.364;2023-04-03T10:01:59;6.30;80.90
4908;DHT22;64375;51.540;7.364;2023-04-03T10:04:37;6.30;78.60
4908;DHT22;64375;51.540;7.364;2023-04-03T10:07:35;6.30;77.90
4908;DHT22;64375;51.540;7.364;2023-04-03T10:10:19;6.30;78.20
4908;DHT22;64375;51.540;7.364;2023-04-03T10:13:10;6.20;75.50
4908;DHT22;64375;51.540;7.364;2023-04-03T10:15:54;6.20;79.00
4908;DHT22;64375;51.540;7.364;2023-04-03T10:18:31;6.30;80.30
4908;DHT22;64375;51.540;7.364;2023-04-03T10:21:05;6.50;79.70
4908;DHT22;64375;51.540;7.364;2023-04-03T10:24:05;6.60;78.80
4908;DHT22;64375;51.540;7.364;2023-04-03T10:26:46;6.50;75.90
4908;DHT22;64375;51.540;7.364;2023-04-03T10:29:28;6.50;77.70
4908;DHT22;64375;51.540;7.364;2023-04-03T10:35:20;6.80;80.00
4908;DHT22;64375;51.540;7.364;2023-04-03T10:38:03;6.60;73.40
4908;DHT22;64375;51.540;7.364;2023-04-03T10:40:42;6.60;74.20
4908;DHT22;64375;51.540;7.364;2023-04-03T10:43:18;6.60;75.60
4908;DHT22;64375;51.540;7.364;2023-04-03T10:45:56;6.80;77.20
4908;DHT22;64375;51.540;7.364;2023-04-03T10:48:40;6.90;78.10
4908;DHT22;64375;51.540;7.364;2023-04-03T10:51:20;6.80;74.90
4908;DHT22;64375;51.540;7.364;2023-04-03T10:54:12;6.80;76.80
4908;DHT22;64375;51.540;7.364;2023-04-03T10:56:42;6.80;76.00
4908;DHT22;64375;51.540;7.364;2023-04-03T10:59:19;6.90;75.80
4908;DHT22;64375;51.540;7.364;2023-04-03T11:02:00;6.90;74.60
4908;DHT22;64375;51.540;7.364;2023-04-03T11:04:33;7.10;74.60
4908;DHT22;64375;51.540;7.364;2023-04-03T11:07:04;7.30;72.60
4908;DHT22;64375;51.540;7.364;2023-04-03T11:09:38;7.00;72.50
4908;DHT22;64375;51.540;7.364;2023-04-03T11:12:14;7.20;77.60
4908;DHT22;64375;51.540;7.364;2023-04-03T11:14:47;7.30;75.00
4908;DHT22;64375;51.540;7.364;2023-04-03T11:17:23;7.60;73.80
4908;DHT22;64375;51.540;7.364;2023-04-03T11:20:03;7.70;75.10
4908;DHT22;64375;51.540;7.364;2023-04-03T11:22:39;7.80;72.00
4908;DHT22;64375;51.540;7.364;2023-04-03T11:25:24;7.70;74.80
4908;DHT22;64375;51.540;7.364;2023-04-03T11:28:00;7.80;71.40
4908;DHT22;64375;51.540;7.364;2023-04-03T11:30:52;7.60;69.10
4908;DHT22;64375;51.540;7.364;2023-04-03T11:33:39;7.60;69.00
4908;DHT22;64375;51.540;7.364;2023-04-03T11:36:13;7.60;70.00
4908;DHT22;64375;51.540;7.364;2023-04-03T11:39:10;7.60;68.40
4908;DHT22;64375;51.540;7.364;2023-04-03T11:41:48;7.50;66.60
4908;DHT22;64375;51.540;7.364;2023-04-03T11:44:38;7.60;68.50
4908;DHT22;64375;51.540;7.364;2023-04-03T11:47:09;7.70;68.80
4908;DHT22;64375;51.540;7.364;2023-04-03T11:49:59;7.70;70.80
4908;DHT22;64375;51.540;7.364;2023-04-03T11:56:06;7.70;69.40
4908;DHT22;64375;51.540;7.364;2023-04-03T11:59:24;7.60;66.50
4908;DHT22;64375;51.540;7.364;2023-04-03T12:01:54;7.70;69.10
4908;DHT22;64375;51.540;7.364;2023-04-03T12:04:24;7.60;67.00
4908;DHT22;64375;51.540;7.364;2023-04-03T12:07:20;7.60;67.50
4908;DHT22;64375;51.540;7.364;2023-04-03T12:09:58;7.60;68.40
4908;DHT22;64375;51.540;7.364;2023-04-03T12:12:39;7.90;70.60
4908;DHT22;64375;51.540;7.364;2023-04-03T12:16:00;8.00;68.80
4908;DHT22;64375;51.540;7.364;2023-04-03T12:19:03;8.10;68.70
4908;DHT22;64375;51.540;7.364;2023-04-03T12:22:07;8.20;70.10
4908;DHT22;64375;51.540;7.364;2023-04-03T12:24:36;8.00;65.40
4908;DHT22;64375;51.540;7.364;2023-04-03T12:27:24;8.10;67.30
4908;DHT22;64375;51.540;7.364;2023-04-03T12:30:10;8.20;69.00
4908;DHT22;64375;51.540;7.364;2023-04-03T12:33:04;8.00;68.10
4908;DHT22;64375;51.540;7.364;2023-04-03T12:35:44;8.00;69.50
4908;DHT22;64375;51.540;7.364;2023-04-03T12:41:19;8.30;70.70
4908;DHT22;64375;51.540;7.364;2023-04-03T12:44:09;8.30;69.40
4908;DHT22;64375;51.540;7.364;2023-04-03T12:46:44;8.20;68.90
4908;DHT22;64375;51.540;7.364;2023-04-03T12:49:30;8.20;65.50
4908;DHT22;64375;51.540;7.364;2023-04-03T12:52:05;8.10;66.20
4908;DHT22;64375;51.540;7.364;2023-04-03T12:54:46;8.00;65.00
4908;DHT22;64375;51.540;7.364;2023-04-03T12:57:18;8.10;65.00
4908;DHT22;64375;51.540;7.364;2023-04-03T12:59:47;8.10;65.90
4908;DHT22;64375;51.540;7.364;2023-04-03T13:02:24;8.30;71.20
4908;DHT22;64375;51.540;7.364;2023-04-03T13:04:58;8.20;64.80
4908;DHT22;64375;51.540;7.364;2023-04-03T13:07:29;8.20;66.10
4908;DHT22;64375;51.540;7.364;2023-04-03T13:10:13;8.20;67.90
4908;DHT22;64375;51.540;7.364;2023-04-03T13:12:55;8.20;65.10
4908;DHT22;64375;51.540;7.364;2023-04-03T13:15:25;8.10;64.80
4908;DHT22;64375;51.540;7.364;2023-04-03T13:17:58;8.20;66.60
4908;DHT22;64375;51.540;7.364;2023-04-03T13:20:30;8.60;71.60
4908;DHT22;64375;51.540;7.364;2023-04-03T13:23:00;8.70;66.50
4908;DHT22;64375;51.540;7.364;2023-04-03T13:25:36;8.60;64.90
4908;DHT22;64375;51.540;7.364;2023-04-03T13:28:06;8.80;65.90
4908;DHT22;64375;51.540;7.364;2023-04-03T13:30:40;8.80;66.00
4908;DHT22;64375;51.540;7.364;2023-04-03T13:33:36;8.70;67.80
4908;DHT22;64375;51.540;7.364;2023-04-03T13:36:17;8.70;66.30
4908;DHT22;64375;51.540;7.364;2023-04-03T13:38:57;8.60;65.90
4908;DHT22;64375;51.540;7.364;2023-04-03T13:41:29;8.70;67.90
4908;DHT22;64375;51.540;7.364;2023-04-03T13:44:17;8.70;66.40
4908;DHT22;64375;51.540;7.364;2023-04-03T13:46:45;8.80;67.30
4908;DHT22;64375;51.540;7.364;2023-04-03T13:49:29;8.90;65.80
4908;DHT22;64375;51.540;7.364;2023-04-03T13:51:59;8.60;64.90
4908;DHT22;64375;51.540;7.364;2023-04-03T13:54:36;8.70;67.70
4908;DHT22;64375;51.540;7.364;2023-04-03T13:57:12;8.70;65.70
4908;DHT22;64375;51.540;7.364;2023-04-03T13:59:44;8.70;66.20
4908;DHT22;64375;51.540;7.364;2023-04-03T14:02:21;8.70;65.00
4908;DHT22;64375;51.540;7.364;2023-04-03T14:04:54;8.80;68.10
4908;DHT22;64375;51.540;7.364;2023-04-03T14:07:29;9.00;66.60
4908;DHT22;64375;51.540;7.364;2023-04-03T14:10:01;8.80;63.50
4908;DHT22;64375;51.540;7.364;2023-04-03T14:12:32;8.60;64.80
4908;DHT22;64375;51.540;7.364;2023-04-03T14:15:02;8.40;64.50
4908;DHT22;64375;51.540;7.364;2023-04-03T14:17:34;8.40;64.90
4908;DHT22;64375;51.540;7.364;2023-04-03T14:20:03;8.40;66.00
4908;DHT22;64375;51.540;7.364;2023-04-03T14:22:33;8.60;66.60
4908;DHT22;64375;51.540;7.364;2023-04-03T14:25:07;8.60;66.60
4908;DHT22;64375;51.540;7.364;2023-04-03T14:27:43;8.60;65.60
4908;DHT22;64375;51.540;7.364;2023-04-03T14:30:15;8.60;66.40
4908;DHT22;64375;51.540;7.364;2023-04-03T14:32:43;8.80;66.40
4908;DHT22;64375;51.540;7.364;2023-04-03T14:35:12;9.00;66.50
4908;DHT22;64375;51.540;7.364;2023-04-03T14:37:42;9.00;64.10
4908;DHT22;64375;51.540;7.364;2023-04-03T14:40:13;8.80;64.70
4908;DHT22;64375;51.540;7.364;2023-04-03T14:42:48;8.80;65.00
4908;DHT22;64375;51.540;7.364;2023-04-03T14:45:22;8.70;64.90
4908;DHT22;64375;51.540;7.364;2023-04-03T14:47:55;8.60;64.40
4908;DHT22;64375;51.540;7.364;2023-04-03T14:50:27;8.60;65.90
4908;DHT22;64375;51.540;7.364;2023-04-03T14:52:58;8.50;64.50
4908;DHT22;64375;51.540;7.364;2023-04-03T14:55:36;8.60;66.90
4908;DHT22;64375;51.540;7.364;2023-04-03T14:58:09;8.70;65.20
4908;DHT22;64375;51.540;7.364;2023-04-03T15:00:45;8.70;65.20
4908;DHT22;64375;51.540;7.364;2023-04-03T15:03:17;8.40;64.60
4908;DHT22;64375;51.540;7.364;2023-04-03T15:05:48;8.40;66.70
4908;DHT22;64375;51.540;7.364;2023-04-03T15:08:21;8.40;66.70
4908;DHT22;64375;51.540;7.364;2023-04-03T15:10:56;8.30;65.10
4908;DHT22;64375;51.540;7.364;2023-04-03T15:13:27;8.40;66.10
4908;DHT22;64375;51.540;7.364;2023-04-03T15:16:03;8.30;64.00
4908;DHT22;64375;51.540;7.364;2023-04-03T15:18:37;8.40;64.30
4908;DHT22;64375;51.540;7.364;2023-04-03T15:21:11;8.40;64.50
4908;DHT22;64375;51.540;7.364;2023-04-03T15:23:41;8.40;65.40
4908;DHT22;64375;51.540;7.364;2023-04-03T15:26:12;8.30;65.40
4908;DHT22;64375;51.540;7.364;2023-04-03T15:28:48;8.30;66.10
4908;DHT22;64375;51.540;7.364;2023-04-03T15:31:22;8.40;66.30
4908;DHT22;64375;51.540;7.364;2023-04-03T15:33:50;8.50;66.60
4908;DHT22;64375;51.540;7.364;2023-04-03T15:36:18;8.40;65.70
4908;DHT22;64375;51.540;7.364;2023-04-03T15:39:01;8.30;65.50
4908;DHT22;64375;51.540;7.364;2023-04-03T15:41:29;8.30;65.30
4908;DHT22;64375;51.540;7.364;2023-04-03T15:43:57;8.30;64.10
4908;DHT22;64375;51.540;7.364;2023-04-03T15:46:25;8.30;64.50
4908;DHT22;64375;51.540;7.364;2023-04-03T15:48:53;8.20;63.30
4908;DHT22;64375;51.540;7.364;2023-04-03T15:51:21;8.20;63.00
4908;DHT22;64375;51.540;7.364;2023-04-03T15:53:49;8.40;64.20
4908;DHT22;64375;51.540;7.364;2023-04-03T15:56:18;8.50;66.60
4908;DHT22;64375;51.540;7.364;2023-04-03T15:58:49;8.50;64.60
4908;DHT22;64375;51.540;7.364;2023-04-03T16:01:27;8.20;63.90
4908;DHT22;64375;51.540;7.364;2023-04-03T16:03:56;8.30;65.50
4908;DHT22;64375;51.540;7.364;2023-04-03T16:06:30;8.40;64.90
4908;DHT22;64375;51.540;7.364;2023-04-03T16:09:00;8.50;65.70
4908;DHT22;64375;51.540;7.364;2023-04-03T16:11:29;8.50;65.30
4908;DHT22;64375;51.540;7.364;2023-04-03T16:13:58;8.50;64.60
4908;DHT22;64375;51.540;7.364;2023-04-03T16:16:26;8.50;62.70
4908;DHT22;64375;51.540;7.364;2023-04-03T16:18:54;8.30;62.50
4908;DHT22;64375;51.540;7.364;2023-04-03T16:21:23;8.30;62.90
4908;DHT22;64375;51.540;7.364;2023-04-03T16:23:56;8.30;63.10
4908;DHT22;64375;51.540;7.364;2023-04-03T16:26:25;8.20;61.90
4908;DHT22;64375;51.540;7.364;2023-04-03T16:28:54;8.30;63.10
4908;DHT22;64375;51.540;7.364;2023-04-03T16:31:28;8.10;63.00
4908;DHT22;64375;51.540;7.364;2023-04-03T16:34:07;7.90;64.40
4908;DHT22;64375;51.540;7.364;2023-04-03T16:36:37;7.90;64.50
4908;DHT22;64375;51.540;7.364;2023-04-03T16:39:07;8.20;64.80
4908;DHT22;64375;51.540;7.364;2023-04-03T16:41:39;8.20;64.20
4908;DHT22;64375;51.540;7.364;2023-04-03T16:44:11;8.20;64.70
4908;DHT22;64375;51.540;7.364;2023-04-03T16:46:40;8.20;64.10
4908;DHT22;64375;51.540;7.364;2023-04-03T16:49:30;8.20;63.50
4908;DHT22;64375;51.540;7.364;2023-04-03T16:51:59;8.10;62.70
4908;DHT22;64375;51.540;7.364;2023-04-03T16:54:28;8.10;63.40
4908;DHT22;64375;51.540;7.364;2023-04-03T16:57:02;8.00;63.30
4908;DHT22;64375;51.540;7.364;2023-04-03T16:59:32;7.80;63.90